sensor_id;sensor_type;location;lat;lon;timestamp;temperature;humidity
66337;SHT30;53139;45.576;5.304;2023-04-25T00:01:03;9.98;85.08
66337;SHT30;53139;45.576;5.304;2023-04-25T00:04:04;9.99;84.90
66337;SHT30;53139;45.576;5.304;2023-04-25T00:07:08;9.96;85.60
66337;SHT30;53139;45.576;5.304;2023-04-25T00:10:09;9.79;86.83
66337;SHT30;53139;45.576;5.304;2023-04-25T00:13:11;9.88;85.67
66337;SHT30;53139;45.576;5.304;2023-04-25T00:16:11;9.83;87.11
66337;SHT30;53139;45.576;5.304;2023-04-25T00:19:13;9.90;86.84
66337;SHT30;53139;45.576;5.304;2023-04-25T00:22:14;9.77;87.64
66337;SHT30;53139;45.576;5.304;2023-04-25T00:25:14;9.81;86.96
66337;SHT30;53139;45.576;5.304;2023-04-25T00:28:15;9.82;87.17
66337;SHT30;53139;45.576;5.304;2023-04-25T00:31:15;9.82;87.08
66337;SHT30;53139;45.576;5.304;2023-04-25T00:34:16;9.81;87.65
66337;SHT30;53139;45.576;5.304;2023-04-25T00:37:16;9.72;87.85
66337;SHT30;53139;45.576;5.304;2023-04-25T00:40:16;9.79;87.10
66337;SHT30;53139;45.576;5.304;2023-04-25T00:43:17;9.68;86.91
66337;SHT30;53139;45.576;5.304;2023-04-25T00:46:17;9.63;86.49
66337;SHT30;53139;45.576;5.304;2023-04-25T00:49:18;9.57;86.79
66337;SHT30;53139;45.576;5.304;2023-04-25T00:52:19;9.57;86.29
66337;SHT30;53139;45.576;5.304;2023-04-25T00:55:19;9.52;88.43
66337;SHT30;53139;45.576;5.304;2023-04-25T00:58:21;9.45;88.18
66337;SHT30;53139;45.576;5.304;2023-04-25T01:01:22;9.31;88.52
66337;SHT30;53139;45.576;5.304;2023-04-25T01:04:23;9.34;89.59
66337;SHT30;53139;45.576;5.304;2023-04-25T01:07:26;9.40;89.42
66337;SHT30;53139;45.576;5.304;2023-04-25T01:10:27;9.48;87.96
66337;SHT30;53139;45.576;5.304;2023-04-25T01:13:28;9.34;87.78
66337;SHT30;53139;45.576;5.304;2023-04-25T01:16:28;9.22;88.56
66337;SHT30;53139;45.576;5.304;2023-04-25T01:19:29;9.23;88.83
66337;SHT30;53139;45.576;5.304;2023-04-25T01:22:30;9.19;88.64
66337;SHT30;53139;45.576;5.304;2023-04-25T01:25:31;9.10;88.65
66337;SHT30;53139;45.576;5.304;2023-04-25T01:28:33;8.93;89.66
66337;SHT30;53139;45.576;5.304;2023-04-25T01:31:34;8.92;89.80
66337;SHT30;53139;45.576;5.304;2023-04-25T01:34:35;9.07;88.91
66337;SHT30;53139;45.576;5.304;2023-04-25T01:37:40;8.79;89.97
66337;SHT30;53139;45.576;5.304;2023-04-25T01:40:41;8.99;88.34
66337;SHT30;53139;45.576;5.304;2023-04-25T01:43:41;8.88;88.44
66337;SHT30;53139;45.576;5.304;2023-04-25T01:46:42;8.51;90.54
66337;SHT30;53139;45.576;5.304;2023-04-25T01:49:42;8.36;90.79
66337;SHT30;53139;45.576;5.304;2023-04-25T01:52:43;8.37;90.99
66337;SHT30;53139;45.576;5.304;2023-04-25T01:55:43;8.40;90.82
66337;SHT30;53139;45.576;5.304;2023-04-25T01:58:44;8.24;91.49
66337;SHT30;53139;45.576;5.304;2023-04-25T02:01:44;8.51;90.93
66337;SHT30;53139;45.576;5.304;2023-04-25T02:04:45;8.54;90.07
66337;SHT30;53139;45.576;5.304;2023-04-25T02:07:46;8.68;89.88
66337;SHT30;53139;45.576;5.304;2023-04-25T02:10:47;8.76;89.88
66337;SHT30;53139;45.576;5.304;2023-04-25T02:13:47;8.79;89.94
66337;SHT30;53139;45.576;5.304;2023-04-25T02:16:48;8.90;89.01
66337;SHT30;53139;45.576;5.304;2023-04-25T02:19:48;8.97;88.23
66337;SHT30;53139;45.576;5.304;2023-04-25T02:22:49;9.07;87.77
66337;SHT30;53139;45.576;5.304;2023-04-25T02:25:49;9.16;86.73
66337;SHT30;53139;45.576;5.304;2023-04-25T02:28:50;9.24;85.11
66337;SHT30;53139;45.576;5.304;2023-04-25T02:31:51;9.26;84.66
66337;SHT30;53139;45.576;5.304;2023-04-25T02:34:52;9.22;84.77
66337;SHT30;53139;45.576;5.304;2023-04-25T02:37:52;9.33;83.34
66337;SHT30;53139;45.576;5.304;2023-04-25T02:40:53;9.27;84.09
66337;SHT30;53139;45.576;5.304;2023-04-25T02:43:53;9.20;84.73
66337;SHT30;53139;45.576;5.304;2023-04-25T02:46:54;9.17;85.29
66337;SHT30;53139;45.576;5.304;2023-04-25T02:49:54;9.13;85.22
66337;SHT30;53139;45.576;5.304;2023-04-25T02:52:54;9.20;84.32
66337;SHT30;53139;45.576;5.304;2023-04-25T02:55:55;9.26;84.33
66337;SHT30;53139;45.576;5.304;2023-04-25T02:58:59;9.20;85.09
66337;SHT30;53139;45.576;5.304;2023-04-25T03:01:59;9.22;85.25
66337;SHT30;53139;45.576;5.304;2023-04-25T03:05:00;9.22;84.60
66337;SHT30;53139;45.576;5.304;2023-04-25T03:08:00;9.12;85.26
66337;SHT30;53139;45.576;5.304;2023-04-25T03:11:01;9.22;85.03
66337;SHT30;53139;45.576;5.304;2023-04-25T03:14:04;9.17;85.23
66337;SHT30;53139;45.576;5.304;2023-04-25T03:17:05;9.13;85.32
66337;SHT30;53139;45.576;5.304;2023-04-25T03:20:06;9.03;86.73
66337;SHT30;53139;45.576;5.304;2023-04-25T03:23:08;8.96;87.07
66337;SHT30;53139;45.576;5.304;2023-04-25T03:26:08;9.05;86.44
66337;SHT30;53139;45.576;5.304;2023-04-25T03:29:09;8.99;88.05
66337;SHT30;53139;45.576;5.304;2023-04-25T03:32:10;9.05;87.03
66337;SHT30;53139;45.576;5.304;2023-04-25T03:35:10;9.00;86.74
66337;SHT30;53139;45.576;5.304;2023-04-25T03:38:11;8.85;88.60
66337;SHT30;53139;45.576;5.304;2023-04-25T03:41:11;8.62;88.82
66337;SHT30;53139;45.576;5.304;2023-04-25T03:44:11;8.64;88.31
66337;SHT30;53139;45.576;5.304;2023-04-25T03:47:12;8.50;89.01
66337;SHT30;53139;45.576;5.304;2023-04-25T03:50:12;8.54;88.55
66337;SHT30;53139;45.576;5.304;2023-04-25T03:53:13;8.33;89.78
66337;SHT30;53139;45.576;5.304;2023-04-25T03:56:13;8.27;90.44
66337;SHT30;53139;45.576;5.304;2023-04-25T03:59:13;8.40;89.48
66337;SHT30;53139;45.576;5.304;2023-04-25T04:02:14;8.48;89.09
66337;SHT30;53139;45.576;5.304;2023-04-25T04:05:14;8.13;91.67
66337;SHT30;53139;45.576;5.304;2023-04-25T04:08:15;8.37;89.37
66337;SHT30;53139;45.576;5.304;2023-04-25T04:11:15;8.31;90.19
66337;SHT30;53139;45.576;5.304;2023-04-25T04:14:15;8.47;89.22
66337;SHT30;53139;45.576;5.304;2023-04-25T04:17:16;8.34;90.31
66337;SHT30;53139;45.576;5.304;2023-04-25T04:20:17;8.26;90.56
66337;SHT30;53139;45.576;5.304;2023-04-25T04:23:17;8.38;90.14
66337;SHT30;53139;45.576;5.304;2023-04-25T04:26:18;8.40;90.15
66337;SHT30;53139;45.576;5.304;2023-04-25T04:29:18;8.62;89.21
66337;SHT30;53139;45.576;5.304;2023-04-25T04:32:21;8.50;89.58
66337;SHT30;53139;45.576;5.304;2023-04-25T04:35:24;8.51;89.30
66337;SHT30;53139;45.576;5.304;2023-04-25T04:38:24;8.57;89.97
66337;SHT30;53139;45.576;5.304;2023-04-25T04:41:25;8.72;88.95
66337;SHT30;53139;45.576;5.304;2023-04-25T04:44:33;8.78;88.77
66337;SHT30;53139;45.576;5.304;2023-04-25T04:47:58;8.79;88.76
66337;SHT30;53139;45.576;5.304;2023-04-25T04:51:31;8.78;88.58
66337;SHT30;53139;45.576;5.304;2023-04-25T04:54:58;8.78;89.87
66337;SHT30;53139;45.576;5.304;2023-04-25T04:58:16;8.86;88.95
66337;SHT30;53139;45.576;5.304;2023-04-25T05:01:17;8.82;90.17
66337;SHT30;53139;45.576;5.304;2023-04-25T05:04:27;8.76;90.39
66337;SHT30;53139;45.576;5.304;2023-04-25T05:07:43;8.85;89.53
66337;SHT30;53139;45.576;5.304;2023-04-25T05:11:20;8.90;89.23
66337;SHT30;53139;45.576;5.304;2023-04-25T05:14:39;8.95;89.08
66337;SHT30;53139;45.576;5.304;2023-04-25T05:18:11;9.02;89.14
66337;SHT30;53139;45.576;5.304;2023-04-25T05:21:46;9.05;89.61
66337;SHT30;53139;45.576;5.304;2023-04-25T05:25:24;9.13;89.40
66337;SHT30;53139;45.576;5.304;2023-04-25T05:29:07;9.22;88.70
66337;SHT30;53139;45.576;5.304;2023-04-25T05:32:49;9.35;87.69
66337;SHT30;53139;45.576;5.304;2023-04-25T05:36:35;9.51;87.71
66337;SHT30;53139;45.576;5.304;2023-04-25T05:40:14;9.48;88.76
66337;SHT30;53139;45.576;5.304;2023-04-25T05:43:45;9.57;87.79
66337;SHT30;53139;45.576;5.304;2023-04-25T05:46:49;9.51;88.83
66337;SHT30;53139;45.576;5.304;2023-04-25T05:49:49;9.55;88.36
66337;SHT30;53139;45.576;5.304;2023-04-25T05:52:50;9.54;88.77
66337;SHT30;53139;45.576;5.304;2023-04-25T05:56:06;9.59;89.03
66337;SHT30;53139;45.576;5.304;2023-04-25T05:59:38;9.83;87.40
66337;SHT30;53139;45.576;5.304;2023-04-25T06:03:18;10.07;87.07
66337;SHT30;53139;45.576;5.304;2023-04-25T06:06:51;10.20;86.97
66337;SHT30;53139;45.576;5.304;2023-04-25T06:10:31;10.44;86.44
66337;SHT30;53139;45.576;5.304;2023-04-25T06:14:05;10.60;85.51
66337;SHT30;53139;45.576;5.304;2023-04-25T06:17:35;11.03;84.16
66337;SHT30;53139;45.576;5.304;2023-04-25T06:21:07;10.96;84.30
66337;SHT30;53139;45.576;5.304;2023-04-25T06:24:33;11.31;83.48
66337;SHT30;53139;45.576;5.304;2023-04-25T06:28:09;11.30;81.57
66337;SHT30;53139;45.576;5.304;2023-04-25T06:31:44;11.30;80.03
66337;SHT30;53139;45.576;5.304;2023-04-25T06:35:18;11.09;81.01
66337;SHT30;53139;45.576;5.304;2023-04-25T06:38:53;11.15;82.31
66337;SHT30;53139;45.576;5.304;2023-04-25T06:42:26;11.53;82.85
66337;SHT30;53139;45.576;5.304;2023-04-25T06:45:59;11.43;81.95
66337;SHT30;53139;45.576;5.304;2023-04-25T06:49:34;11.50;82.02
66337;SHT30;53139;45.576;5.304;2023-04-25T06:53:22;11.51;80.29
66337;SHT30;53139;45.576;5.304;2023-04-25T06:56:45;11.61;81.17
66337;SHT30;53139;45.576;5.304;2023-04-25T07:00:21;11.82;81.02
66337;SHT30;53139;45.576;5.304;2023-04-25T07:03:57;11.78;79.52
66337;SHT30;53139;45.576;5.304;2023-04-25T07:07:33;11.51;80.39
66337;SHT30;53139;45.576;5.304;2023-04-25T07:11:16;11.51;79.94
66337;SHT30;53139;45.576;5.304;2023-04-25T07:14:44;11.62;79.64
66337;SHT30;53139;45.576;5.304;2023-04-25T07:18:17;11.64;78.63
66337;SHT30;53139;45.576;5.304;2023-04-25T07:21:43;11.78;79.76
66337;SHT30;53139;45.576;5.304;2023-04-25T07:25:21;12.23;78.60
66337;SHT30;53139;45.576;5.304;2023-04-25T07:28:52;12.61;78.80
66337;SHT30;53139;45.576;5.304;2023-04-25T07:32:25;12.33;76.95
66337;SHT30;53139;45.576;5.304;2023-04-25T07:35:56;12.03;75.80
66337;SHT30;53139;45.576;5.304;2023-04-25T07:39:37;12.37;75.71
66337;SHT30;53139;45.576;5.304;2023-04-25T07:43:18;12.62;74.71
66337;SHT30;53139;45.576;5.304;2023-04-25T07:47:11;12.54;74.41
66337;SHT30;53139;45.576;5.304;2023-04-25T07:50:53;12.37;75.52
66337;SHT30;53139;45.576;5.304;2023-04-25T07:54:30;12.36;75.21
66337;SHT30;53139;45.576;5.304;2023-04-25T07:58:06;12.25;75.37
66337;SHT30;53139;45.576;5.304;2023-04-25T08:01:44;13.16;74.96
66337;SHT30;53139;45.576;5.304;2023-04-25T08:05:27;12.91;72.97
66337;SHT30;53139;45.576;5.304;2023-04-25T08:08:54;13.16;71.82
66337;SHT30;53139;45.576;5.304;2023-04-25T08:12:32;13.22;71.63
66337;SHT30;53139;45.576;5.304;2023-04-25T08:16:18;13.65;70.68
66337;SHT30;53139;45.576;5.304;2023-04-25T08:20:06;14.38;69.06
66337;SHT30;53139;45.576;5.304;2023-04-25T08:23:47;13.86;67.88
66337;SHT30;53139;45.576;5.304;2023-04-25T08:31:34;14.01;67.79
66337;SHT30;53139;45.576;5.304;2023-04-25T08:35:22;13.24;66.12
66337;SHT30;53139;45.576;5.304;2023-04-25T08:38:59;13.67;67.17
66337;SHT30;53139;45.576;5.304;2023-04-25T08:42:56;13.12;65.42
66337;SHT30;53139;45.576;5.304;2023-04-25T08:46:45;14.08;66.03
66337;SHT30;53139;45.576;5.304;2023-04-25T08:50:30;14.06;66.68
66337;SHT30;53139;45.576;5.304;2023-04-25T08:54:34;14.16;66.36
66337;SHT30;53139;45.576;5.304;2023-04-25T08:58:42;14.91;64.94
66337;SHT30;53139;45.576;5.304;2023-04-25T09:02:46;13.71;65.13
66337;SHT30;53139;45.576;5.304;2023-04-25T09:06:41;15.26;61.90
66337;SHT30;53139;45.576;5.304;2023-04-25T09:10:37;14.96;60.24
66337;SHT30;53139;45.576;5.304;2023-04-25T09:14:37;14.46;63.94
66337;SHT30;53139;45.576;5.304;2023-04-25T09:18:25;14.84;60.17
66337;SHT30;53139;45.576;5.304;2023-04-25T09:22:20;14.78;58.11
66337;SHT30;53139;45.576;5.304;2023-04-25T09:26:06;15.70;55.23
66337;SHT30;53139;45.576;5.304;2023-04-25T09:30:15;16.78;54.17
66337;SHT30;53139;45.576;5.304;2023-04-25T09:34:35;15.80;58.25
66337;SHT30;53139;45.576;5.304;2023-04-25T09:38:42;15.97;55.35
66337;SHT30;53139;45.576;5.304;2023-04-25T09:42:28;17.18;52.69
66337;SHT30;53139;45.576;5.304;2023-04-25T09:46:32;17.83;51.48
66337;SHT30;53139;45.576;5.304;2023-04-25T09:54:58;16.75;47.90
66337;SHT30;53139;45.576;5.304;2023-04-25T09:59:02;17.92;49.85
66337;SHT30;53139;45.576;5.304;2023-04-25T10:03:20;16.54;48.81
66337;SHT30;53139;45.576;5.304;2023-04-25T10:07:31;18.25;48.68
66337;SHT30;53139;45.576;5.304;2023-04-25T10:11:28;19.32;47.56
66337;SHT30;53139;45.576;5.304;2023-04-25T10:15:34;16.29;51.58
66337;SHT30;53139;45.576;5.304;2023-04-25T10:19:32;16.32;55.08
66337;SHT30;53139;45.576;5.304;2023-04-25T10:23:47;15.05;58.80
66337;SHT30;53139;45.576;5.304;2023-04-25T10:27:51;15.30;58.75
66337;SHT30;53139;45.576;5.304;2023-04-25T10:32:08;15.92;57.71
66337;SHT30;53139;45.576;5.304;2023-04-25T10:36:20;15.57;50.63
66337;SHT30;53139;45.576;5.304;2023-04-25T10:40:24;18.46;49.87
66337;SHT30;53139;45.576;5.304;2023-04-25T10:44:34;19.77;44.03
66337;SHT30;53139;45.576;5.304;2023-04-25T10:48:48;19.56;43.04
66337;SHT30;53139;45.576;5.304;2023-04-25T10:56:44;20.36;45.86
66337;SHT30;53139;45.576;5.304;2023-04-25T11:01:15;20.10;48.80
66337;SHT30;53139;45.576;5.304;2023-04-25T11:05:26;19.23;52.63
66337;SHT30;53139;45.576;5.304;2023-04-25T11:09:40;18.09;49.49
66337;SHT30;53139;45.576;5.304;2023-04-25T11:13:41;17.97;50.12
66337;SHT30;53139;45.576;5.304;2023-04-25T11:17:50;20.77;53.51
66337;SHT30;53139;45.576;5.304;2023-04-25T11:26:11;21.97;43.14
66337;SHT30;53139;45.576;5.304;2023-04-25T11:30:18;21.35;49.33
66337;SHT30;53139;45.576;5.304;2023-04-25T11:34:20;17.42;47.20
66337;SHT30;53139;45.576;5.304;2023-04-25T11:38:24;17.33;48.78
66337;SHT30;53139;45.576;5.304;2023-04-25T11:42:19;20.33;48.45
66337;SHT30;53139;45.576;5.304;2023-04-25T11:46:16;17.83;50.93
66337;SHT30;53139;45.576;5.304;2023-04-25T11:50:03;17.33;49.44
66337;SHT30;53139;45.576;5.304;2023-04-25T11:54:10;16.94;51.65
66337;SHT30;53139;45.576;5.304;2023-04-25T11:58:11;16.61;52.16
66337;SHT30;53139;45.576;5.304;2023-04-25T12:02:23;19.18;52.21
66337;SHT30;53139;45.576;5.304;2023-04-25T12:06:27;17.16;51.76
66337;SHT30;53139;45.576;5.304;2023-04-25T12:10:32;19.42;45.04
66337;SHT30;53139;45.576;5.304;2023-04-25T12:19:33;20.63;43.33
66337;SHT30;53139;45.576;5.304;2023-04-25T12:23:48;18.75;47.85
66337;SHT30;53139;45.576;5.304;2023-04-25T12:27:27;20.50;44.28
66337;SHT30;53139;45.576;5.304;2023-04-25T12:31:13;19.53;42.78
66337;SHT30;53139;45.576;5.304;2023-04-25T12:34:59;20.07;43.41
66337;SHT30;53139;45.576;5.304;2023-04-25T12:38:46;20.25;41.83
66337;SHT30;53139;45.576;5.304;2023-04-25T12:42:33;20.60;42.34
66337;SHT30;53139;45.576;5.304;2023-04-25T12:46:19;18.54;47.48
66337;SHT30;53139;45.576;5.304;2023-04-25T12:50:01;19.33;46.29
66337;SHT30;53139;45.576;5.304;2023-04-25T12:53:42;19.01;49.34
66337;SHT30;53139;45.576;5.304;2023-04-25T12:57:32;18.05;48.05
66337;SHT30;53139;45.576;5.304;2023-04-25T13:01:21;16.81;49.89
66337;SHT30;53139;45.576;5.304;2023-04-25T13:05:18;18.92;45.15
66337;SHT30;53139;45.576;5.304;2023-04-25T13:09:20;22.32;41.80
66337;SHT30;53139;45.576;5.304;2023-04-25T13:13:22;20.29;43.28
66337;SHT30;53139;45.576;5.304;2023-04-25T13:17:12;19.95;44.04
66337;SHT30;53139;45.576;5.304;2023-04-25T13:20:54;20.69;44.38
66337;SHT30;53139;45.576;5.304;2023-04-25T13:24:55;22.25;40.89
66337;SHT30;53139;45.576;5.304;2023-04-25T13:28:54;21.90;36.84
66337;SHT30;53139;45.576;5.304;2023-04-25T13:33:00;22.25;41.37
66337;SHT30;53139;45.576;5.304;2023-04-25T13:37:17;23.58;41.81
66337;SHT30;53139;45.576;5.304;2023-04-25T13:41:32;21.18;43.36
66337;SHT30;53139;45.576;5.304;2023-04-25T13:45:26;22.93;39.19
66337;SHT30;53139;45.576;5.304;2023-04-25T13:49:13;23.65;40.81
66337;SHT30;53139;45.576;5.304;2023-04-25T13:53:26;22.93;41.19
66337;SHT30;53139;45.576;5.304;2023-04-25T13:57:38;22.00;38.59
66337;SHT30;53139;45.576;5.304;2023-04-25T14:01:31;20.74;41.84
66337;SHT30;53139;45.576;5.304;2023-04-25T14:05:43;21.79;40.22
66337;SHT30;53139;45.576;5.304;2023-04-25T14:09:36;21.93;42.92
66337;SHT30;53139;45.576;5.304;2023-04-25T14:13:16;22.42;37.06
66337;SHT30;53139;45.576;5.304;2023-04-25T14:21:33;23.59;39.03
66337;SHT30;53139;45.576;5.304;2023-04-25T14:25:43;23.84;35.45
66337;SHT30;53139;45.576;5.304;2023-04-25T14:29:44;24.07;36.14
66337;SHT30;53139;45.576;5.304;2023-04-25T14:33:50;21.25;38.63
66337;SHT30;53139;45.576;5.304;2023-04-25T14:38:03;19.38;47.44
66337;SHT30;53139;45.576;5.304;2023-04-25T14:41:39;21.11;41.02
66337;SHT30;53139;45.576;5.304;2023-04-25T14:45:11;22.87;39.21
66337;SHT30;53139;45.576;5.304;2023-04-25T14:49:08;21.63;38.07
66337;SHT30;53139;45.576;5.304;2023-04-25T14:53:13;20.18;39.40
66337;SHT30;53139;45.576;5.304;2023-04-25T14:57:05;21.89;38.81
66337;SHT30;53139;45.576;5.304;2023-04-25T15:01:11;22.73;39.95
66337;SHT30;53139;45.576;5.304;2023-04-25T15:05:15;20.53;37.48
66337;SHT30;53139;45.576;5.304;2023-04-25T15:08:52;20.70;36.58
66337;SHT30;53139;45.576;5.304;2023-04-25T15:12:50;20.93;36.51
66337;SHT30;53139;45.576;5.304;2023-04-25T15:16:40;20.30;39.45
66337;SHT30;53139;45.576;5.304;2023-04-25T15:20:39;21.50;38.63
66337;SHT30;53139;45.576;5.304;2023-04-25T15:24:26;22.59;37.81
66337;SHT30;53139;45.576;5.304;2023-04-25T15:28:23;22.08;35.62
66337;SHT30;53139;45.576;5.304;2023-04-25T15:31:59;19.98;39.32
66337;SHT30;53139;45.576;5.304;2023-04-25T15:35:22;20.11;40.50
66337;SHT30;53139;45.576;5.304;2023-04-25T15:38:23;22.45;38.39
66337;SHT30;53139;45.576;5.304;2023-04-25T15:41:31;21.35;35.94
66337;SHT30;53139;45.576;5.304;2023-04-25T15:44:35;21.63;36.37
66337;SHT30;53139;45.576;5.304;2023-04-25T15:47:36;20.45;38.06
66337;SHT30;53139;45.576;5.304;2023-04-25T15:50:41;21.10;38.48
66337;SHT30;53139;45.576;5.304;2023-04-25T15:53:41;21.89;39.00
66337;SHT30;53139;45.576;5.304;2023-04-25T15:56:41;21.72;37.60
66337;SHT30;53139;45.576;5.304;2023-04-25T15:59:42;20.91;37.18
66337;SHT30;53139;45.576;5.304;2023-04-25T16:02:43;19.97;36.48
66337;SHT30;53139;45.576;5.304;2023-04-25T16:05:43;21.49;35.61
66337;SHT30;53139;45.576;5.304;2023-04-25T16:08:44;20.94;38.47
66337;SHT30;53139;45.576;5.304;2023-04-25T16:11:44;21.39;38.60
66337;SHT30;53139;45.576;5.304;2023-04-25T16:14:45;20.56;37.37
66337;SHT30;53139;45.576;5.304;2023-04-25T16:17:45;20.30;39.68
66337;SHT30;53139;45.576;5.304;2023-04-25T16:20:46;20.18;40.47
66337;SHT30;53139;45.576;5.304;2023-04-25T16:23:46;20.47;38.88
66337;SHT30;53139;45.576;5.304;2023-04-25T16:26:47;19.95;38.02
66337;SHT30;53139;45.576;5.304;2023-04-25T16:29:47;19.22;40.71
66337;SHT30;53139;45.576;5.304;2023-04-25T16:32:50;19.50;40.24
66337;SHT30;53139;45.576;5.304;2023-04-25T16:35:50;20.25;42.45
66337;SHT30;53139;45.576;5.304;2023-04-25T16:38:52;19.53;39.15
66337;SHT30;53139;45.576;5.304;2023-04-25T16:41:54;18.84;40.45
66337;SHT30;53139;45.576;5.304;2023-04-25T16:44:55;18.83;38.22
66337;SHT30;53139;45.576;5.304;2023-04-25T16:47:55;18.61;38.99
66337;SHT30;53139;45.576;5.304;2023-04-25T16:50:56;18.97;39.63
66337;SHT30;53139;45.576;5.304;2023-04-25T16:53:56;18.35;40.36
66337;SHT30;53139;45.576;5.304;2023-04-25T16:57:00;18.80;42.65
66337;SHT30;53139;45.576;5.304;2023-04-25T17:00:00;18.33;41.73
66337;SHT30;53139;45.576;5.304;2023-04-25T17:03:01;17.97;43.74
66337;SHT30;53139;45.576;5.304;2023-04-25T17:06:06;17.80;43.88
66337;SHT30;53139;45.576;5.304;2023-04-25T17:09:07;17.14;44.40
66337;SHT30;53139;45.576;5.304;2023-04-25T17:12:07;17.37;45.12
66337;SHT30;53139;45.576;5.304;2023-04-25T17:15:08;17.39;45.67
66337;SHT30;53139;45.576;5.304;2023-04-25T17:18:09;17.19;42.62
66337;SHT30;53139;45.576;5.304;2023-04-25T17:21:10;16.56;44.74
66337;SHT30;53139;45.576;5.304;2023-04-25T17:24:16;16.20;44.18
66337;SHT30;53139;45.576;5.304;2023-04-25T17:27:19;16.37;45.00
66337;SHT30;53139;45.576;5.304;2023-04-25T17:30:20;16.29;45.19
66337;SHT30;53139;45.576;5.304;2023-04-25T17:33:21;16.13;44.28
66337;SHT30;53139;45.576;5.304;2023-04-25T17:36:25;15.75;44.74
66337;SHT30;53139;45.576;5.304;2023-04-25T17:39:26;15.50;46.10
66337;SHT30;53139;45.576;5.304;2023-04-25T17:42:26;15.16;45.88
66337;SHT30;53139;45.576;5.304;2023-04-25T17:45:27;14.82;46.43
66337;SHT30;53139;45.576;5.304;2023-04-25T17:48:33;14.56;47.94
66337;SHT30;53139;45.576;5.304;2023-04-25T17:51:34;14.36;49.04
66337;SHT30;53139;45.576;5.304;2023-04-25T17:54:34;14.26;48.84
66337;SHT30;53139;45.576;5.304;2023-04-25T17:57:35;13.91;50.19
66337;SHT30;53139;45.576;5.304;2023-04-25T18:00:36;13.75;50.51
66337;SHT30;53139;45.576;5.304;2023-04-25T18:03:36;13.54;51.08
66337;SHT30;53139;45.576;5.304;2023-04-25T18:06:39;13.16;52.57
66337;SHT30;53139;45.576;5.304;2023-04-25T18:09:40;13.16;52.07
66337;SHT30;53139;45.576;5.304;2023-04-25T18:12:40;13.10;51.10
66337;SHT30;53139;45.576;5.304;2023-04-25T18:15:51;12.88;53.88
66337;SHT30;53139;45.576;5.304;2023-04-25T18:18:51;12.88;53.74
66337;SHT30;53139;45.576;5.304;2023-04-25T18:21:54;12.84;53.80
66337;SHT30;53139;45.576;5.304;2023-04-25T18:24:54;12.58;55.68
66337;SHT30;53139;45.576;5.304;2023-04-25T18:27:54;12.37;57.59
66337;SHT30;53139;45.576;5.304;2023-04-25T18:30:55;11.99;58.16
66337;SHT30;53139;45.576;5.304;2023-04-25T18:33:56;11.75;58.63
66337;SHT30;53139;45.576;5.304;2023-04-25T18:36:57;11.55;59.62
66337;SHT30;53139;45.576;5.304;2023-04-25T18:39:57;11.58;59.74
66337;SHT30;53139;45.576;5.304;2023-04-25T18:42:58;11.19;61.23
66337;SHT30;53139;45.576;5.304;2023-04-25T18:45:59;11.19;61.65
66337;SHT30;53139;45.576;5.304;2023-04-25T18:49:02;10.95;61.93
66337;SHT30;53139;45.576;5.304;2023-04-25T18:52:06;10.51;64.76
66337;SHT30;53139;45.576;5.304;2023-04-25T18:55:11;10.20;64.50
66337;SHT30;53139;45.576;5.304;2023-04-25T18:58:18;10.21;64.31
66337;SHT30;53139;45.576;5.304;2023-04-25T19:01:32;10.06;65.17
66337;SHT30;53139;45.576;5.304;2023-04-25T19:04:41;10.27;64.31
66337;SHT30;53139;45.576;5.304;2023-04-25T19:07:58;9.95;65.71
66337;SHT30;53139;45.576;5.304;2023-04-25T19:11:07;9.41;68.19
66337;SHT30;53139;45.576;5.304;2023-04-25T19:14:15;9.44;68.16
66337;SHT30;53139;45.576;5.304;2023-04-25T19:17:20;9.43;69.16
66337;SHT30;53139;45.576;5.304;2023-04-25T19:20:32;9.24;68.22
66337;SHT30;53139;45.576;5.304;2023-04-25T19:23:33;9.34;67.70
66337;SHT30;53139;45.576;5.304;2023-04-25T19:26:53;9.28;69.26
66337;SHT30;53139;45.576;5.304;2023-04-25T19:30:40;8.86;70.62
66337;SHT30;53139;45.576;5.304;2023-04-25T19:34:07;8.72;70.98
66337;SHT30;53139;45.576;5.304;2023-04-25T19:37:40;8.37;72.70
66337;SHT30;53139;45.576;5.304;2023-04-25T19:41:08;7.74;77.12
66337;SHT30;53139;45.576;5.304;2023-04-25T19:44:08;8.20;75.29
66337;SHT30;53139;45.576;5.304;2023-04-25T19:47:09;8.44;73.36
66337;SHT30;53139;45.576;5.304;2023-04-25T19:50:10;8.58;73.70
66337;SHT30;53139;45.576;5.304;2023-04-25T19:53:10;8.65;73.22
66337;SHT30;53139;45.576;5.304;2023-04-25T19:56:11;8.79;72.08
66337;SHT30;53139;45.576;5.304;2023-04-25T19:59:11;8.73;72.25
66337;SHT30;53139;45.576;5.304;2023-04-25T20:02:21;8.31;74.13
66337;SHT30;53139;45.576;5.304;2023-04-25T20:05:22;8.42;72.90
66337;SHT30;53139;45.576;5.304;2023-04-25T20:08:22;7.81;75.71
66337;SHT30;53139;45.576;5.304;2023-04-25T20:11:31;7.99;75.02
66337;SHT30;53139;45.576;5.304;2023-04-25T20:14:32;8.00;75.50
66337;SHT30;53139;45.576;5.304;2023-04-25T20:17:32;8.07;73.97
66337;SHT30;53139;45.576;5.304;2023-04-25T20:20:34;8.14;73.65
66337;SHT30;53139;45.576;5.304;2023-04-25T20:23:39;7.86;75.53
66337;SHT30;53139;45.576;5.304;2023-04-25T20:27:12;7.77;75.46
66337;SHT30;53139;45.576;5.304;2023-04-25T20:31:10;7.83;75.83
66337;SHT30;53139;45.576;5.304;2023-04-25T20:34:48;8.10;74.72
66337;SHT30;53139;45.576;5.304;2023-04-25T20:38:21;8.00;75.05
66337;SHT30;53139;45.576;5.304;2023-04-25T20:41:46;8.00;74.46
66337;SHT30;53139;45.576;5.304;2023-04-25T20:45:06;7.74;75.72
66337;SHT30;53139;45.576;5.304;2023-04-25T20:48:13;7.68;76.13
66337;SHT30;53139;45.576;5.304;2023-04-25T20:51:14;7.43;77.03
66337;SHT30;53139;45.576;5.304;2023-04-25T20:54:20;7.43;77.11
66337;SHT30;53139;45.576;5.304;2023-04-25T20:57:36;7.46;76.77
66337;SHT30;53139;45.576;5.304;2023-04-25T21:00:52;7.77;74.98
66337;SHT30;53139;45.576;5.304;2023-04-25T21:03:53;7.34;76.76
66337;SHT30;53139;45.576;5.304;2023-04-25T21:06:54;7.19;76.16
66337;SHT30;53139;45.576;5.304;2023-04-25T21:10:01;7.14;76.81
66337;SHT30;53139;45.576;5.304;2023-04-25T21:13:20;6.74;78.24
66337;SHT30;53139;45.576;5.304;2023-04-25T21:16:31;6.67;79.57
66337;SHT30;53139;45.576;5.304;2023-04-25T21:19:58;6.38;80.38
66337;SHT30;53139;45.576;5.304;2023-04-25T21:23:36;6.38;80.35
66337;SHT30;53139;45.576;5.304;2023-04-25T21:27:46;6.14;82.73
66337;SHT30;53139;45.576;5.304;2023-04-25T21:31:25;6.29;81.32
66337;SHT30;53139;45.576;5.304;2023-04-25T21:34:32;6.26;81.69
66337;SHT30;53139;45.576;5.304;2023-04-25T21:37:40;6.20;80.98
66337;SHT30;53139;45.576;5.304;2023-04-25T21:40:44;5.98;82.56
66337;SHT30;53139;45.576;5.304;2023-04-25T21:43:45;6.09;82.06
66337;SHT30;53139;45.576;5.304;2023-04-25T21:46:55;6.34;80.66
66337;SHT30;53139;45.576;5.304;2023-04-25T21:50:17;6.07;82.07
66337;SHT30;53139;45.576;5.304;2023-04-25T21:53:31;6.14;80.99
66337;SHT30;53139;45.576;5.304;2023-04-25T21:56:44;6.06;81.61
66337;SHT30;53139;45.576;5.304;2023-04-25T21:59:51;6.14;81.08